sensor_id;sensor_type;location;lat;lon;timestamp;pressure;altitude;pressure_sealevel;temperature;humidity
4273;BME280;63887;53.656;9.810;2023-06-10T00:00:55;101858.78;;;15.05;88.94
4273;BME280;63887;53.656;9.810;2023-06-10T00:03:23;101864.81;;;15.23;87.19
4273;BME280;63887;53.656;9.810;2023-06-10T00:05:49;101874.19;;;15.28;86.45
4273;BME280;63887;53.656;9.810;2023-06-10T00:08:15;101860.97;;;15.12;86.41
4273;BME280;63887;53.656;9.810;2023-06-10T00:10:44;101864.28;;;14.69;89.58
4273;BME280;63887;53.656;9.810;2023-06-10T00:13:10;101862.94;;;14.93;87.28
4273;BME280;63887;53.656;9.810;2023-06-10T00:15:37;101868.72;;;15.15;86.50
4273;BME280;63887;53.656;9.810;2023-06-10T00:18:03;101862.69;;;14.98;86.49
4273;BME280;63887;53.656;9.810;2023-06-10T00:20:31;101868.06;;;15.12;85.57
4273;BME280;63887;53.656;9.810;2023-06-10T00:23:04;101871.03;;;14.74;86.88
4273;BME280;63887;53.656;9.810;2023-06-10T00:25:31;101857.75;;;14.91;86.14
4273;BME280;63887;53.656;9.810;2023-06-10T00:27:58;101853.22;;;14.62;86.79
4273;BME280;63887;53.656;9.810;2023-06-10T00:30:24;101850.66;;;14.60;87.56
4273;BME280;63887;53.656;9.810;2023-06-10T00:32:51;101855.50;;;14.68;86.97
4273;BME280;63887;53.656;9.810;2023-06-10T00:35:17;101862.00;;;14.63;87.04
4273;BME280;63887;53.656;9.810;2023-06-10T00:37:45;101855.69;;;14.65;86.38
4273;BME280;63887;53.656;9.810;2023-06-10T00:40:11;101856.09;;;14.57;86.28
4273;BME280;63887;53.656;9.810;2023-06-10T00:42:38;101855.28;;;14.88;84.86
4273;BME280;63887;53.656;9.810;2023-06-10T00:45:05;101856.63;;;14.80;85.12
4273;BME280;63887;53.656;9.810;2023-06-10T00:47:31;101857.88;;;14.57;85.90
4273;BME280;63887;53.656;9.810;2023-06-10T00:49:58;101859.53;;;14.59;85.44
4273;BME280;63887;53.656;9.810;2023-06-10T00:52:25;101864.31;;;14.18;88.21
4273;BME280;63887;53.656;9.810;2023-06-10T00:54:54;101867.97;;;14.16;88.20
4273;BME280;63887;53.656;9.810;2023-06-10T00:57:21;101867.59;;;14.39;87.17
4273;BME280;63887;53.656;9.810;2023-06-10T00:59:48;101867.38;;;14.26;87.84
4273;BME280;63887;53.656;9.810;2023-06-10T01:02:14;101867.78;;;14.36;87.06
4273;BME280;63887;53.656;9.810;2023-06-10T01:04:41;101864.22;;;14.20;87.58
4273;BME280;63887;53.656;9.810;2023-06-10T01:07:14;101867.25;;;14.12;89.03
4273;BME280;63887;53.656;9.810;2023-06-10T01:09:45;101857.72;;;14.43;87.55
4273;BME280;63887;53.656;9.810;2023-06-10T01:12:19;101863.19;;;13.89;89.75
4273;BME280;63887;53.656;9.810;2023-06-10T01:14:46;101863.38;;;13.67;90.94
4273;BME280;63887;53.656;9.810;2023-06-10T01:17:13;101871.31;;;14.02;90.38
4273;BME280;63887;53.656;9.810;2023-06-10T01:19:41;101865.50;;;13.78;91.20
4273;BME280;63887;53.656;9.810;2023-06-10T01:22:10;101862.75;;;13.97;91.05
4273;BME280;63887;53.656;9.810;2023-06-10T01:24:40;101878.97;;;14.24;89.62
4273;BME280;63887;53.656;9.810;2023-06-10T01:27:09;101869.38;;;13.71;91.85
4273;BME280;63887;53.656;9.810;2023-06-10T01:29:40;101874.34;;;13.94;90.70
4273;BME280;63887;53.656;9.810;2023-06-10T01:32:11;101877.91;;;13.93;91.18
4273;BME280;63887;53.656;9.810;2023-06-10T01:34:38;101875.03;;;13.98;89.62
4273;BME280;63887;53.656;9.810;2023-06-10T01:37:05;101877.88;;;14.11;88.82
4273;BME280;63887;53.656;9.810;2023-06-10T01:39:33;101880.69;;;14.08;88.50
4273;BME280;63887;53.656;9.810;2023-06-10T01:41:59;101879.09;;;13.88;88.78
4273;BME280;63887;53.656;9.810;2023-06-10T01:44:27;101882.31;;;14.10;88.24
4273;BME280;63887;53.656;9.810;2023-06-10T01:46:53;101886.13;;;13.87;88.80
4273;BME280;63887;53.656;9.810;2023-06-10T01:49:19;101888.59;;;14.08;87.37
4273;BME280;63887;53.656;9.810;2023-06-10T01:51:47;101888.13;;;13.82;88.72
4273;BME280;63887;53.656;9.810;2023-06-10T01:54:13;101878.03;;;14.25;86.24
4273;BME280;63887;53.656;9.810;2023-06-10T01:56:41;101881.41;;;13.94;87.30
4273;BME280;63887;53.656;9.810;2023-06-10T01:59:07;101875.34;;;13.92;87.23
4273;BME280;63887;53.656;9.810;2023-06-10T02:01:33;101874.06;;;13.47;88.93
4273;BME280;63887;53.656;9.810;2023-06-10T02:03:59;101876.72;;;13.64;88.56
4273;BME280;63887;53.656;9.810;2023-06-10T02:06:26;101877.59;;;13.65;87.49
4273;BME280;63887;53.656;9.810;2023-06-10T02:08:52;101871.84;;;13.74;87.00
4273;BME280;63887;53.656;9.810;2023-06-10T02:11:18;101876.13;;;13.77;86.53
4273;BME280;63887;53.656;9.810;2023-06-10T02:13:46;101877.75;;;13.96;85.33
4273;BME280;63887;53.656;9.810;2023-06-10T02:16:13;101868.66;;;13.67;86.92
4273;BME280;63887;53.656;9.810;2023-06-10T02:18:41;101875.63;;;13.68;86.34
4273;BME280;63887;53.656;9.810;2023-06-10T02:21:09;101872.84;;;13.18;88.20
4273;BME280;63887;53.656;9.810;2023-06-10T02:23:35;101878.84;;;13.39;87.81
4273;BME280;63887;53.656;9.810;2023-06-10T02:26:02;101880.50;;;13.41;86.53
4273;BME280;63887;53.656;9.810;2023-06-10T02:28:28;101873.00;;;12.96;89.34
4273;BME280;63887;53.656;9.810;2023-06-10T02:30:55;101887.34;;;12.89;90.34
4273;BME280;63887;53.656;9.810;2023-06-10T02:33:22;101881.25;;;13.26;88.01
4273;BME280;63887;53.656;9.810;2023-06-10T02:35:49;101884.94;;;13.22;87.55
4273;BME280;63887;53.656;9.810;2023-06-10T02:38:15;101875.94;;;13.07;88.52
4273;BME280;63887;53.656;9.810;2023-06-10T02:40:42;101875.53;;;13.17;88.13
4273;BME280;63887;53.656;9.810;2023-06-10T02:43:08;101876.06;;;13.25;88.02
4273;BME280;63887;53.656;9.810;2023-06-10T02:45:34;101881.09;;;13.29;87.54
4273;BME280;63887;53.656;9.810;2023-06-10T02:48:02;101882.03;;;13.28;87.36
4273;BME280;63887;53.656;9.810;2023-06-10T02:50:28;101891.69;;;12.71;90.73
4273;BME280;63887;53.656;9.810;2023-06-10T02:52:55;101881.31;;;12.48;91.85
4273;BME280;63887;53.656;9.810;2023-06-10T02:55:21;101884.63;;;12.53;92.01
4273;BME280;63887;53.656;9.810;2023-06-10T02:57:51;101881.25;;;12.49;92.80
4273;BME280;63887;53.656;9.810;2023-06-10T03:00:17;101890.75;;;12.53;92.87
4273;BME280;63887;53.656;9.810;2023-06-10T03:02:46;101895.50;;;12.25;93.64
4273;BME280;63887;53.656;9.810;2023-06-10T03:05:14;101892.84;;;12.06;93.98
4273;BME280;63887;53.656;9.810;2023-06-10T03:07:42;101895.59;;;12.23;94.13
4273;BME280;63887;53.656;9.810;2023-06-10T03:10:08;101887.19;;;12.34;93.02
4273;BME280;63887;53.656;9.810;2023-06-10T03:12:34;101885.44;;;12.14;94.55
4273;BME280;63887;53.656;9.810;2023-06-10T03:15:01;101887.22;;;12.14;94.27
4273;BME280;63887;53.656;9.810;2023-06-10T03:17:29;101893.97;;;12.19;93.48
4273;BME280;63887;53.656;9.810;2023-06-10T03:19:55;101894.31;;;12.32;92.86
4273;BME280;63887;53.656;9.810;2023-06-10T03:22:22;101891.31;;;12.21;93.74
4273;BME280;63887;53.656;9.810;2023-06-10T03:24:49;101897.53;;;11.98;94.17
4273;BME280;63887;53.656;9.810;2023-06-10T03:27:16;101897.41;;;12.01;94.17
4273;BME280;63887;53.656;9.810;2023-06-10T03:29:42;101899.50;;;12.34;93.33
4273;BME280;63887;53.656;9.810;2023-06-10T03:32:09;101893.44;;;12.52;91.42
4273;BME280;63887;53.656;9.810;2023-06-10T03:34:35;101896.69;;;12.18;92.61
4273;BME280;63887;53.656;9.810;2023-06-10T03:37:01;101898.81;;;12.10;94.15
4273;BME280;63887;53.656;9.810;2023-06-10T03:39:29;101899.03;;;12.04;94.20
4273;BME280;63887;53.656;9.810;2023-06-10T03:41:56;101900.38;;;12.14;93.73
4273;BME280;63887;53.656;9.810;2023-06-10T03:44:23;101891.91;;;12.07;94.26
4273;BME280;63887;53.656;9.810;2023-06-10T03:46:49;101892.56;;;12.12;93.84
4273;BME280;63887;53.656;9.810;2023-06-10T03:49:16;101895.34;;;12.48;92.79
4273;BME280;63887;53.656;9.810;2023-06-10T03:51:43;101890.34;;;12.42;92.67
4273;BME280;63887;53.656;9.810;2023-06-10T03:54:09;101894.97;;;12.37;92.94
4273;BME280;63887;53.656;9.810;2023-06-10T03:56:37;101899.72;;;12.29;93.83
4273;BME280;63887;53.656;9.810;2023-06-10T03:59:03;101901.69;;;12.63;92.09
4273;BME280;63887;53.656;9.810;2023-06-10T04:01:30;101895.00;;;12.56;92.52
4273;BME280;63887;53.656;9.810;2023-06-10T04:03:56;101903.72;;;12.38;93.28
4273;BME280;63887;53.656;9.810;2023-06-10T04:06:22;101897.31;;;13.01;90.38
4273;BME280;63887;53.656;9.810;2023-06-10T04:08:50;101898.41;;;12.97;89.79
4273;BME280;63887;53.656;9.810;2023-06-10T04:11:16;101902.69;;;12.79;91.25
4273;BME280;63887;53.656;9.810;2023-06-10T04:13:44;101896.47;;;13.01;90.54
4273;BME280;63887;53.656;9.810;2023-06-10T04:16:10;101896.53;;;12.80;90.93
4273;BME280;63887;53.656;9.810;2023-06-10T04:18:37;101888.66;;;12.80;91.75
4273;BME280;63887;53.656;9.810;2023-06-10T04:21:03;101889.63;;;12.78;91.86
4273;BME280;63887;53.656;9.810;2023-06-10T04:23:29;101896.94;;;13.09;91.22
4273;BME280;63887;53.656;9.810;2023-06-10T04:25:56;101892.63;;;13.27;89.15
4273;BME280;63887;53.656;9.810;2023-06-10T04:28:22;101894.19;;;12.93;91.30
4273;BME280;63887;53.656;9.810;2023-06-10T04:30:50;101893.31;;;12.93;91.97
4273;BME280;63887;53.656;9.810;2023-06-10T04:33:16;101887.63;;;13.02;91.77
4273;BME280;63887;53.656;9.810;2023-06-10T04:35:42;101892.09;;;13.37;90.70
4273;BME280;63887;53.656;9.810;2023-06-10T04:38:09;101894.41;;;13.62;89.60
4273;BME280;63887;53.656;9.810;2023-06-10T04:40:35;101890.41;;;13.72;89.00
4273;BME280;63887;53.656;9.810;2023-06-10T04:43:03;101899.94;;;13.92;88.52
4273;BME280;63887;53.656;9.810;2023-06-10T04:45:29;101891.16;;;14.09;88.27
4273;BME280;63887;53.656;9.810;2023-06-10T04:47:57;101899.47;;;14.01;88.77
4273;BME280;63887;53.656;9.810;2023-06-10T04:50:23;101901.09;;;14.21;87.82
4273;BME280;63887;53.656;9.810;2023-06-10T04:52:50;101892.50;;;14.18;88.19
4273;BME280;63887;53.656;9.810;2023-06-10T04:55:16;101898.38;;;14.23;88.62
4273;BME280;63887;53.656;9.810;2023-06-10T04:57:42;101884.94;;;14.45;87.12
4273;BME280;63887;53.656;9.810;2023-06-10T05:00:09;101891.13;;;14.26;87.55
4273;BME280;63887;53.656;9.810;2023-06-10T05:02:36;101893.03;;;14.57;86.98
4273;BME280;63887;53.656;9.810;2023-06-10T05:05:03;101883.81;;;14.98;85.41
4273;BME280;63887;53.656;9.810;2023-06-10T05:07:30;101876.00;;;15.12;84.69
4273;BME280;63887;53.656;9.810;2023-06-10T05:09:56;101890.19;;;14.62;87.27
4273;BME280;63887;53.656;9.810;2023-06-10T05:12:22;101883.72;;;14.83;86.57
4273;BME280;63887;53.656;9.810;2023-06-10T05:14:48;101883.63;;;15.32;84.40
4273;BME280;63887;53.656;9.810;2023-06-10T05:17:15;101882.00;;;15.61;83.12
4273;BME280;63887;53.656;9.810;2023-06-10T05:19:41;101889.44;;;15.39;84.67
4273;BME280;63887;53.656;9.810;2023-06-10T05:22:09;101888.28;;;15.74;83.06
4273;BME280;63887;53.656;9.810;2023-06-10T05:24:36;101887.91;;;15.35;83.96
4273;BME280;63887;53.656;9.810;2023-06-10T05:27:02;101883.03;;;15.89;83.11
4273;BME280;63887;53.656;9.810;2023-06-10T05:29:29;101884.13;;;16.00;81.92
4273;BME280;63887;53.656;9.810;2023-06-10T05:31:56;101895.03;;;16.24;80.86
4273;BME280;63887;53.656;9.810;2023-06-10T05:34:25;101891.81;;;16.19;81.60
4273;BME280;63887;53.656;9.810;2023-06-10T05:36:51;101889.75;;;16.95;78.89
4273;BME280;63887;53.656;9.810;2023-06-10T05:39:19;101887.38;;;17.99;72.87
4273;BME280;63887;53.656;9.810;2023-06-10T05:41:45;101889.31;;;18.73;69.99
4273;BME280;63887;53.656;9.810;2023-06-10T05:44:12;101886.84;;;19.80;65.81
4273;BME280;63887;53.656;9.810;2023-06-10T05:46:38;101888.84;;;20.22;63.67
4273;BME280;63887;53.656;9.810;2023-06-10T05:49:04;101885.00;;;20.94;60.96
4273;BME280;63887;53.656;9.810;2023-06-10T05:51:30;101878.91;;;21.57;58.53
4273;BME280;63887;53.656;9.810;2023-06-10T05:53:57;101886.16;;;21.46;58.07
4273;BME280;63887;53.656;9.810;2023-06-10T05:56:24;101885.03;;;21.48;57.70
4273;BME280;63887;53.656;9.810;2023-06-10T05:58:51;101880.50;;;21.81;56.01
4273;BME280;63887;53.656;9.810;2023-06-10T06:01:17;101872.81;;;21.66;56.89
4273;BME280;63887;53.656;9.810;2023-06-10T06:03:44;101878.88;;;21.68;56.36
4273;BME280;63887;53.656;9.810;2023-06-10T06:06:10;101876.00;;;22.44;54.22
4273;BME280;63887;53.656;9.810;2023-06-10T06:08:36;101868.81;;;22.14;54.22
4273;BME280;63887;53.656;9.810;2023-06-10T06:11:03;101870.44;;;22.26;53.57
4273;BME280;63887;53.656;9.810;2023-06-10T06:13:30;101867.94;;;21.71;55.44
4273;BME280;63887;53.656;9.810;2023-06-10T06:15:56;101867.31;;;23.70;49.87
4273;BME280;63887;53.656;9.810;2023-06-10T06:18:23;101871.63;;;23.42;50.57
4273;BME280;63887;53.656;9.810;2023-06-10T06:20:49;101869.16;;;22.30;53.43
4273;BME280;63887;53.656;9.810;2023-06-10T06:23:15;101854.31;;;23.56;50.20
4273;BME280;63887;53.656;9.810;2023-06-10T06:25:42;101859.94;;;22.74;51.85
4273;BME280;63887;53.656;9.810;2023-06-10T06:28:09;101858.53;;;23.78;49.64
4273;BME280;63887;53.656;9.810;2023-06-10T06:30:37;101866.84;;;22.77;52.41
4273;BME280;63887;53.656;9.810;2023-06-10T06:33:03;101868.94;;;22.73;51.81
4273;BME280;63887;53.656;9.810;2023-06-10T06:35:30;101877.31;;;22.49;52.72
4273;BME280;63887;53.656;9.810;2023-06-10T06:37:56;101875.63;;;23.58;49.08
4273;BME280;63887;53.656;9.810;2023-06-10T06:40:23;101872.25;;;22.56;52.03
4273;BME280;63887;53.656;9.810;2023-06-10T06:42:50;101860.50;;;23.08;49.93
4273;BME280;63887;53.656;9.810;2023-06-10T06:45:16;101869.09;;;23.79;48.33
4273;BME280;63887;53.656;9.810;2023-06-10T06:47:44;101872.25;;;22.56;51.15
4273;BME280;63887;53.656;9.810;2023-06-10T06:50:10;101860.78;;;23.25;50.23
4273;BME280;63887;53.656;9.810;2023-06-10T06:52:36;101871.13;;;23.68;49.52
4273;BME280;63887;53.656;9.810;2023-06-10T06:55:03;101863.19;;;23.47;49.43
4273;BME280;63887;53.656;9.810;2023-06-10T06:57:29;101866.16;;;23.63;48.36
4273;BME280;63887;53.656;9.810;2023-06-10T06:59:55;101866.31;;;24.37;47.77
4273;BME280;63887;53.656;9.810;2023-06-10T07:02:22;101863.28;;;25.33;43.27
4273;BME280;63887;53.656;9.810;2023-06-10T07:04:49;101873.25;;;25.40;43.37
4273;BME280;63887;53.656;9.810;2023-06-10T07:07:16;101868.94;;;25.83;42.67
4273;BME280;63887;53.656;9.810;2023-06-10T07:09:42;101869.75;;;26.01;41.57
4273;BME280;63887;53.656;9.810;2023-06-10T07:12:09;101867.81;;;25.50;42.53
4273;BME280;63887;53.656;9.810;2023-06-10T07:14:35;101871.72;;;25.38;42.84
4273;BME280;63887;53.656;9.810;2023-06-10T07:17:01;101878.44;;;25.95;42.19
4273;BME280;63887;53.656;9.810;2023-06-10T07:19:28;101873.88;;;26.73;40.43
4273;BME280;63887;53.656;9.810;2023-06-10T07:21:55;101882.16;;;25.94;42.42
4273;BME280;63887;53.656;9.810;2023-06-10T07:24:22;101880.28;;;26.47;41.01
4273;BME280;63887;53.656;9.810;2023-06-10T07:26:48;101877.66;;;26.29;41.08
4273;BME280;63887;53.656;9.810;2023-06-10T07:29:14;101881.13;;;26.39;41.61
4273;BME280;63887;53.656;9.810;2023-06-10T07:31:40;101875.03;;;26.71;40.46
4273;BME280;63887;53.656;9.810;2023-06-10T07:34:07;101886.69;;;26.88;39.80
4273;BME280;63887;53.656;9.810;2023-06-10T07:36:33;101880.38;;;27.05;39.18
4273;BME280;63887;53.656;9.810;2023-06-10T07:39:01;101881.16;;;26.89;40.78
4273;BME280;63887;53.656;9.810;2023-06-10T07:41:27;101888.28;;;26.04;40.86
4273;BME280;63887;53.656;9.810;2023-06-10T07:43:53;101886.91;;;25.82;41.56
4273;BME280;63887;53.656;9.810;2023-06-10T07:46:21;101889.31;;;25.50;41.43
4273;BME280;63887;53.656;9.810;2023-06-10T07:48:47;101882.56;;;25.46;41.92
4273;BME280;63887;53.656;9.810;2023-06-10T07:51:14;101884.88;;;26.28;41.24
4273;BME280;63887;53.656;9.810;2023-06-10T07:53:40;101881.59;;;24.64;43.19
4273;BME280;63887;53.656;9.810;2023-06-10T07:56:08;101876.78;;;24.41;45.56
4273;BME280;63887;53.656;9.810;2023-06-10T07:58:34;101875.00;;;24.02;45.89
4273;BME280;63887;53.656;9.810;2023-06-10T08:01:01;101871.50;;;23.44;47.77
4273;BME280;63887;53.656;9.810;2023-06-10T08:03:27;101870.31;;;22.98;50.46
4273;BME280;63887;53.656;9.810;2023-06-10T08:05:53;101874.00;;;21.94;52.04
4273;BME280;63887;53.656;9.810;2023-06-10T08:08:20;101871.69;;;22.22;51.86
4273;BME280;63887;53.656;9.810;2023-06-10T08:10:46;101870.44;;;22.26;52.47
4273;BME280;63887;53.656;9.810;2023-06-10T08:13:15;101866.91;;;22.25;52.81
4273;BME280;63887;53.656;9.810;2023-06-10T08:15:41;101876.47;;;22.49;52.73
4273;BME280;63887;53.656;9.810;2023-06-10T08:18:07;101876.69;;;22.76;52.41
4273;BME280;63887;53.656;9.810;2023-06-10T08:20:34;101869.09;;;22.41;52.38
4273;BME280;63887;53.656;9.810;2023-06-10T08:23:00;101864.06;;;22.48;53.67
4273;BME280;63887;53.656;9.810;2023-06-10T08:25:27;101876.69;;;22.36;53.48
4273;BME280;63887;53.656;9.810;2023-06-10T08:27:53;101867.97;;;22.13;54.67
4273;BME280;63887;53.656;9.810;2023-06-10T08:30:22;101872.47;;;22.13;54.10
4273;BME280;63887;53.656;9.810;2023-06-10T08:32:49;101881.53;;;22.21;53.76
4273;BME280;63887;53.656;9.810;2023-06-10T08:35:16;101875.75;;;21.84;54.40
4273;BME280;63887;53.656;9.810;2023-06-10T08:37:43;101873.22;;;21.62;55.58
4273;BME280;63887;53.656;9.810;2023-06-10T08:40:09;101874.34;;;21.48;55.92
4273;BME280;63887;53.656;9.810;2023-06-10T08:42:38;101867.88;;;21.62;55.99
4273;BME280;63887;53.656;9.810;2023-06-10T08:45:05;101881.28;;;21.71;56.28
4273;BME280;63887;53.656;9.810;2023-06-10T08:47:34;101880.66;;;21.79;56.15
4273;BME280;63887;53.656;9.810;2023-06-10T08:50:02;101869.88;;;21.69;56.69
4273;BME280;63887;53.656;9.810;2023-06-10T08:52:29;101870.00;;;21.68;57.57
4273;BME280;63887;53.656;9.810;2023-06-10T08:55:02;101869.84;;;21.81;57.18
4273;BME280;63887;53.656;9.810;2023-06-10T08:57:29;101873.03;;;21.75;56.13
4273;BME280;63887;53.656;9.810;2023-06-10T08:59:55;101876.09;;;21.91;55.71
4273;BME280;63887;53.656;9.810;2023-06-10T09:02:22;101872.41;;;21.71;58.00
4273;BME280;63887;53.656;9.810;2023-06-10T09:04:51;101876.41;;;21.77;56.88
4273;BME280;63887;53.656;9.810;2023-06-10T09:07:18;101878.56;;;21.62;56.60
4273;BME280;63887;53.656;9.810;2023-06-10T09:09:44;101872.00;;;21.55;57.19
4273;BME280;63887;53.656;9.810;2023-06-10T09:12:11;101863.63;;;21.59;58.21
4273;BME280;63887;53.656;9.810;2023-06-10T09:27:35;101864.34;;;21.61;58.87
4273;BME280;63887;53.656;9.810;2023-06-10T09:30:10;101858.75;;;21.64;58.76
4273;BME280;63887;53.656;9.810;2023-06-10T09:32:37;101863.50;;;21.61;59.51
4273;BME280;63887;53.656;9.810;2023-06-10T09:35:08;101854.66;;;21.60;59.16
4273;BME280;63887;53.656;9.810;2023-06-10T09:45:22;101857.38;;;21.49;59.92
4273;BME280;63887;53.656;9.810;2023-06-10T09:47:51;101853.22;;;21.77;59.79
4273;BME280;63887;53.656;9.810;2023-06-10T09:50:17;101858.69;;;21.96;59.92
4273;BME280;63887;53.656;9.810;2023-06-10T09:52:44;101856.59;;;22.00;58.66
4273;BME280;63887;53.656;9.810;2023-06-10T09:55:11;101863.84;;;21.88;60.16
4273;BME280;63887;53.656;9.810;2023-06-10T09:57:38;101857.00;;;21.95;59.07
4273;BME280;63887;53.656;9.810;2023-06-10T10:00:09;101858.97;;;21.93;59.75
4273;BME280;63887;53.656;9.810;2023-06-10T10:02:43;101856.16;;;21.95;59.39
4273;BME280;63887;53.656;9.810;2023-06-10T10:05:09;101860.34;;;22.09;59.38
4273;BME280;63887;53.656;9.810;2023-06-10T10:07:36;101858.16;;;21.82;59.68
4273;BME280;63887;53.656;9.810;2023-06-10T10:10:02;101866.31;;;22.01;58.88
4273;BME280;63887;53.656;9.810;2023-06-10T10:12:28;101858.63;;;21.87;60.42
4273;BME280;63887;53.656;9.810;2023-06-10T10:14:55;101856.06;;;22.17;58.92
4273;BME280;63887;53.656;9.810;2023-06-10T10:17:22;101865.09;;;22.26;58.78
4273;BME280;63887;53.656;9.810;2023-06-10T10:19:53;101862.19;;;22.08;59.37
4273;BME280;63887;53.656;9.810;2023-06-10T10:22:20;101859.47;;;22.29;58.30
4273;BME280;63887;53.656;9.810;2023-06-10T10:24:51;101863.63;;;22.43;58.28
4273;BME280;63887;53.656;9.810;2023-06-10T10:27:20;101862.31;;;22.37;58.70
4273;BME280;63887;53.656;9.810;2023-06-10T10:29:47;101864.59;;;22.42;58.57
4273;BME280;63887;53.656;9.810;2023-06-10T10:32:13;101857.69;;;22.39;58.71
4273;BME280;63887;53.656;9.810;2023-06-10T10:34:42;101865.78;;;22.28;59.91
4273;BME280;63887;53.656;9.810;2023-06-10T10:37:11;101866.41;;;22.41;59.85
4273;BME280;63887;53.656;9.810;2023-06-10T10:39:37;101856.63;;;22.61;59.06
4273;BME280;63887;53.656;9.810;2023-06-10T10:42:04;101852.59;;;22.76;58.08
4273;BME280;63887;53.656;9.810;2023-06-10T10:44:34;101854.34;;;22.77;58.78
4273;BME280;63887;53.656;9.810;2023-06-10T10:47:02;101856.53;;;22.72;59.33
4273;BME280;63887;53.656;9.810;2023-06-10T10:49:28;101849.88;;;22.87;58.13
4273;BME280;63887;53.656;9.810;2023-06-10T10:51:56;101850.00;;;22.86;57.32
4273;BME280;63887;53.656;9.810;2023-06-10T10:54:30;101855.22;;;22.87;57.83
4273;BME280;63887;53.656;9.810;2023-06-10T10:57:10;101852.97;;;22.83;57.61
4273;BME280;63887;53.656;9.810;2023-06-10T10:59:46;101849.31;;;23.03;57.24
4273;BME280;63887;53.656;9.810;2023-06-10T11:02:17;101838.59;;;22.84;57.93
4273;BME280;63887;53.656;9.810;2023-06-10T11:04:44;101847.50;;;23.04;58.30
4273;BME280;63887;53.656;9.810;2023-06-10T11:07:11;101848.38;;;23.14;57.57
4273;BME280;63887;53.656;9.810;2023-06-10T11:09:41;101850.19;;;23.04;57.44
4273;BME280;63887;53.656;9.810;2023-06-10T11:12:23;101852.16;;;22.92;58.25
4273;BME280;63887;53.656;9.810;2023-06-10T11:14:53;101850.44;;;22.91;58.11
4273;BME280;63887;53.656;9.810;2023-06-10T11:17:20;101848.88;;;22.88;57.62
4273;BME280;63887;53.656;9.810;2023-06-10T11:19:46;101840.88;;;22.98;57.71
4273;BME280;63887;53.656;9.810;2023-06-10T11:22:15;101846.41;;;23.26;57.64
4273;BME280;63887;53.656;9.810;2023-06-10T11:24:44;101835.97;;;23.13;57.71
4273;BME280;63887;53.656;9.810;2023-06-10T11:27:16;101837.66;;;23.14;57.73
4273;BME280;63887;53.656;9.810;2023-06-10T11:29:56;101834.72;;;23.36;56.48
4273;BME280;63887;53.656;9.810;2023-06-10T11:32:22;101836.56;;;23.55;57.21
4273;BME280;63887;53.656;9.810;2023-06-10T11:34:51;101835.28;;;23.30;55.54
4273;BME280;63887;53.656;9.810;2023-06-10T11:37:18;101831.78;;;23.39;55.91
4273;BME280;63887;53.656;9.810;2023-06-10T11:39:45;101832.31;;;23.43;55.60
4273;BME280;63887;53.656;9.810;2023-06-10T11:42:12;101834.16;;;23.52;56.24
4273;BME280;63887;53.656;9.810;2023-06-10T11:44:38;101835.28;;;23.78;54.81
4273;BME280;63887;53.656;9.810;2023-06-10T11:47:05;101840.66;;;23.69;55.21
4273;BME280;63887;53.656;9.810;2023-06-10T11:49:31;101834.16;;;23.62;56.42
4273;BME280;63887;53.656;9.810;2023-06-10T11:51:57;101837.53;;;23.73;55.10
4273;BME280;63887;53.656;9.810;2023-06-10T11:54:24;101830.34;;;23.84;54.39
4273;BME280;63887;53.656;9.810;2023-06-10T11:56:56;101834.28;;;23.89;54.82
4273;BME280;63887;53.656;9.810;2023-06-10T11:59:26;101837.69;;;23.82;55.36
4273;BME280;63887;53.656;9.810;2023-06-10T12:01:52;101825.41;;;23.79;55.70
4273;BME280;63887;53.656;9.810;2023-06-10T12:04:19;101828.22;;;23.77;55.99
4273;BME280;63887;53.656;9.810;2023-06-10T12:06:48;101829.88;;;23.98;55.02
4273;BME280;63887;53.656;9.810;2023-06-10T12:09:16;101825.19;;;24.09;55.58
4273;BME280;63887;53.656;9.810;2023-06-10T12:11:43;101824.75;;;24.14;54.28
4273;BME280;63887;53.656;9.810;2023-06-10T12:14:11;101835.19;;;24.17;55.23
4273;BME280;63887;53.656;9.810;2023-06-10T12:16:37;101829.81;;;24.17;55.89
4273;BME280;63887;53.656;9.810;2023-06-10T12:19:04;101829.69;;;24.09;55.31
4273;BME280;63887;53.656;9.810;2023-06-10T12:21:31;101831.13;;;24.13;55.41
4273;BME280;63887;53.656;9.810;2023-06-10T12:24:01;101830.28;;;24.03;56.22
4273;BME280;63887;53.656;9.810;2023-06-10T12:26:39;101828.63;;;23.92;56.14
4273;BME280;63887;53.656;9.810;2023-06-10T12:29:17;101817.28;;;24.08;55.94
4273;BME280;63887;53.656;9.810;2023-06-10T12:31:57;101815.22;;;24.39;55.93
4273;BME280;63887;53.656;9.810;2023-06-10T12:34:30;101808.09;;;24.30;56.22
4273;BME280;63887;53.656;9.810;2023-06-10T12:36:57;101805.59;;;24.46;54.54
4273;BME280;63887;53.656;9.810;2023-06-10T12:39:23;101805.91;;;24.43;54.36
4273;BME280;63887;53.656;9.810;2023-06-10T12:41:49;101805.00;;;24.52;54.14
4273;BME280;63887;53.656;9.810;2023-06-10T12:44:18;101804.06;;;24.44;54.11
4273;BME280;63887;53.656;9.810;2023-06-10T12:46:46;101795.44;;;24.40;53.91
4273;BME280;63887;53.656;9.810;2023-06-10T12:49:19;101801.81;;;24.39;54.46
4273;BME280;63887;53.656;9.810;2023-06-10T12:51:46;101796.59;;;24.37;54.59
4273;BME280;63887;53.656;9.810;2023-06-10T12:54:13;101793.03;;;24.47;54.53
4273;BME280;63887;53.656;9.810;2023-06-10T12:56:39;101787.13;;;24.71;53.78
4273;BME280;63887;53.656;9.810;2023-06-10T12:59:05;101798.28;;;24.66;53.81
4273;BME280;63887;53.656;9.810;2023-06-10T13:01:33;101790.25;;;24.84;52.35
4273;BME280;63887;53.656;9.810;2023-06-10T13:03:59;101792.81;;;24.85;53.13
4273;BME280;63887;53.656;9.810;2023-06-10T13:06:25;101785.03;;;24.82;53.58
4273;BME280;63887;53.656;9.810;2023-06-10T13:08:52;101784.84;;;24.93;53.18
4273;BME280;63887;53.656;9.810;2023-06-10T13:11:18;101782.81;;;25.05;51.88
4273;BME280;63887;53.656;9.810;2023-06-10T13:13:44;101780.50;;;25.10;51.45
4273;BME280;63887;53.656;9.810;2023-06-10T13:16:11;101786.50;;;25.04;52.07
4273;BME280;63887;53.656;9.810;2023-06-10T13:18:38;101784.13;;;25.01;52.54
4273;BME280;63887;53.656;9.810;2023-06-10T13:21:05;101785.03;;;25.10;52.26